createdAt,value
2022-09-28T00:01:16.150Z,11.30
2022-09-28T00:03:50.517Z,11.30
2022-09-28T00:06:25.548Z,11.30
2022-09-28T00:08:59.265Z,11.20
2022-09-28T00:11:33.458Z,11.20
2022-09-28T00:14:08.409Z,11.20
2022-09-28T00:16:43.535Z,11.20
2022-09-28T00:19:17.373Z,11.30
2022-09-28T00:21:50.782Z,11.30
2022-09-28T00:24:27.570Z,11.20
2022-09-28T00:27:02.569Z,11.20
2022-09-28T00:29:38.477Z,11.20
2022-09-28T00:32:13.353Z,11.20
2022-09-28T00:34:46.961Z,11.20
2022-09-28T00:37:20.920Z,11.20
2022-09-28T00:39:54.305Z,11.20
2022-09-28T00:42:27.902Z,11.20
2022-09-28T00:45:02.731Z,11.20
2022-09-28T00:47:42.557Z,11.20
2022-09-28T00:50:20.028Z,11.20
2022-09-28T00:52:55.493Z,11.10
2022-09-28T00:55:32.890Z,11.10
2022-09-28T00:58:07.601Z,11.10
2022-09-28T01:00:42.702Z,11.10
2022-09-28T01:03:17.177Z,11.10
2022-09-28T01:05:51.772Z,11.10
2022-09-28T01:08:25.948Z,11.10
2022-09-28T01:11:00.336Z,11.10
2022-09-28T01:13:34.812Z,11.10
2022-09-28T01:16:12.881Z,11.00
2022-09-28T01:18:54.533Z,10.90
2022-09-28T01:21:28.341Z,10.90
2022-09-28T01:24:09.677Z,10.80
2022-09-28T01:26:53.062Z,10.80
2022-09-28T01:29:32.128Z,10.70
2022-09-28T01:32:11.811Z,10.70
2022-09-28T01:34:48.735Z,10.60
2022-09-28T01:37:23.147Z,10.50
2022-09-28T01:39:57.376Z,10.40
2022-09-28T01:42:34.221Z,10.40
2022-09-28T01:45:11.958Z,10.30
2022-09-28T01:47:46.625Z,10.20
2022-09-28T01:50:23.382Z,10.10
2022-09-28T01:53:00.555Z,10.00
2022-09-28T01:55:35.497Z,10.00
2022-09-28T01:58:13.532Z,9.90
2022-09-28T02:00:49.725Z,9.80
2022-09-28T02:03:25.644Z,9.70
2022-09-28T02:06:09.422Z,9.70
2022-09-28T02:08:48.359Z,9.60
2022-09-28T02:11:22.416Z,9.50
2022-09-28T02:14:02.292Z,9.50
2022-09-28T02:16:37.723Z,9.40
2022-09-28T02:19:12.569Z,9.40
2022-09-28T02:21:50.397Z,9.40
2022-09-28T02:24:25.462Z,9.30
2022-09-28T02:27:00.938Z,9.30
2022-09-28T02:29:40.710Z,9.30
2022-09-28T02:32:14.167Z,9.30
2022-09-28T02:34:47.569Z,9.40
2022-09-28T02:37:20.865Z,9.40
2022-09-28T02:39:54.266Z,9.40
2022-09-28T02:42:29.766Z,9.40
2022-09-28T02:45:13.526Z,9.40
2022-09-28T02:47:55.533Z,9.50
2022-09-28T02:50:36.946Z,9.40
2022-09-28T02:53:26.643Z,9.50
2022-09-28T02:56:07.851Z,9.50
2022-09-28T02:58:47.815Z,9.50
2022-09-28T03:01:25.550Z,9.50
2022-09-28T03:04:01.372Z,9.50
2022-09-28T03:06:38.660Z,9.50
2022-09-28T03:09:16.226Z,9.60
2022-09-28T03:11:52.326Z,9.60
2022-09-28T03:14:25.960Z,9.60
2022-09-28T03:17:04.224Z,9.60
2022-09-28T03:19:37.654Z,9.60
2022-09-28T03:22:11.012Z,9.60
2022-09-28T03:24:44.303Z,9.60
2022-09-28T03:27:17.538Z,9.50
2022-09-28T03:29:50.982Z,9.50
2022-09-28T03:32:26.259Z,9.50
2022-09-28T03:34:59.568Z,9.50
2022-09-28T03:37:33.089Z,9.50
2022-09-28T03:40:06.973Z,9.50
2022-09-28T03:42:40.713Z,9.50
2022-09-28T03:45:14.080Z,9.40
2022-09-28T03:47:49.255Z,9.40
2022-09-28T03:50:24.859Z,9.40
2022-09-28T03:53:02.849Z,9.40
2022-09-28T03:55:36.054Z,9.40
2022-09-28T03:58:09.408Z,9.40
2022-09-28T04:00:42.732Z,9.40
2022-09-28T04:03:17.642Z,9.40
2022-09-28T04:05:51.451Z,9.40
2022-09-28T04:08:24.891Z,9.40
2022-09-28T04:10:58.589Z,9.40
2022-09-28T04:13:32.214Z,9.40
2022-09-28T04:16:05.675Z,9.40
2022-09-28T04:18:42.462Z,9.40
2022-09-28T04:21:34.612Z,9.40
2022-09-28T04:24:14.490Z,9.40
2022-09-28T04:26:48.065Z,9.30
2022-09-28T04:29:21.064Z,9.30
2022-09-28T04:31:58.380Z,9.30
2022-09-28T04:34:44.644Z,9.30
2022-09-28T04:37:18.455Z,9.30
2022-09-28T04:39:51.720Z,9.30
2022-09-28T04:42:25.998Z,9.30
2022-09-28T04:45:00.968Z,9.30
2022-09-28T04:47:34.443Z,9.30
2022-09-28T04:50:27.385Z,9.30
2022-09-28T04:53:18.405Z,9.30
2022-09-28T04:55:58.881Z,9.30
2022-09-28T04:58:32.478Z,9.30
2022-09-28T05:01:07.004Z,9.20
2022-09-28T05:04:06.613Z,9.20
2022-09-28T05:06:51.486Z,9.20
2022-09-28T05:09:24.936Z,9.20
2022-09-28T05:11:58.565Z,9.20
2022-09-28T05:14:32.182Z,9.20
2022-09-28T05:17:05.516Z,9.20
2022-09-28T05:20:00.756Z,9.20
2022-09-28T05:22:35.721Z,9.20
2022-09-28T05:25:09.744Z,9.20
2022-09-28T05:27:56.259Z,9.20
2022-09-28T05:30:41.169Z,9.20
2022-09-28T05:33:31.611Z,9.20
2022-09-28T05:36:16.459Z,9.30
2022-09-28T05:38:51.236Z,9.30
2022-09-28T05:41:25.286Z,9.40
2022-09-28T05:43:59.058Z,9.40
2022-09-28T05:46:32.384Z,9.50
2022-09-28T05:49:07.499Z,9.50
2022-09-28T05:51:40.768Z,9.50
2022-09-28T05:54:19.240Z,9.60
2022-09-28T05:56:53.462Z,9.60
2022-09-28T05:59:26.737Z,9.60
2022-09-28T06:02:00.238Z,9.70
2022-09-28T06:04:33.945Z,9.70
2022-09-28T06:07:07.187Z,9.80
2022-09-28T06:09:42.559Z,9.80
2022-09-28T06:12:16.545Z,9.80
2022-09-28T06:14:53.572Z,9.90
2022-09-28T06:17:28.225Z,9.90
2022-09-28T06:20:21.428Z,10.00
2022-09-28T06:23:03.060Z,10.00
2022-09-28T06:25:37.955Z,10.00
2022-09-28T06:28:12.145Z,10.10
2022-09-28T06:30:48.308Z,10.10
2022-09-28T06:33:25.780Z,10.10
2022-09-28T06:35:59.941Z,10.10
2022-09-28T06:38:33.431Z,10.20
2022-09-28T06:41:08.157Z,10.30
2022-09-28T06:43:41.563Z,10.40
2022-09-28T06:46:33.211Z,10.40
2022-09-28T06:49:24.954Z,10.40
2022-09-28T06:52:18.536Z,10.50
2022-09-28T06:55:10.583Z,10.50
2022-09-28T06:58:00.206Z,10.60
2022-09-28T07:00:34.527Z,10.70
2022-09-28T07:03:09.253Z,10.80
2022-09-28T07:06:02.256Z,10.80
2022-09-28T07:09:03.110Z,10.80
2022-09-28T07:12:17.966Z,10.80
2022-09-28T07:14:59.601Z,10.90
2022-09-28T07:17:40.466Z,10.90
2022-09-28T07:20:20.842Z,10.90
2022-09-28T07:22:56.473Z,11.00
2022-09-28T07:25:31.641Z,10.90
2022-09-28T07:28:28.729Z,11.00
2022-09-28T07:31:29.978Z,11.00
2022-09-28T07:34:23.197Z,11.00
2022-09-28T07:37:11.516Z,11.00
2022-09-28T07:40:05.373Z,11.00
2022-09-28T07:42:41.719Z,11.00
2022-09-28T07:45:16.409Z,11.00
2022-09-28T07:47:51.151Z,11.00
2022-09-28T07:50:42.948Z,11.00
2022-09-28T07:53:23.390Z,11.10
2022-09-28T07:56:17.409Z,11.20
2022-09-28T07:59:25.736Z,11.40
2022-09-28T08:02:25.898Z,11.60
2022-09-28T08:05:01.334Z,11.90
2022-09-28T08:07:34.862Z,12.10
2022-09-28T08:10:11.244Z,12.40
2022-09-28T08:13:04.765Z,12.60
2022-09-28T08:16:05.954Z,12.90
2022-09-28T08:18:45.330Z,13.20
2022-09-28T08:21:43.165Z,13.50
2022-09-28T08:24:19.257Z,13.60
2022-09-28T08:26:54.874Z,13.70
2022-09-28T08:29:31.972Z,13.80
2022-09-28T08:32:24.880Z,13.90
2022-09-28T08:35:18.383Z,14.10
2022-09-28T08:38:13.703Z,14.40
2022-09-28T08:41:17.708Z,14.60
2022-09-28T08:44:17.038Z,14.80
2022-09-28T08:47:33.703Z,15.00
2022-09-28T08:50:47.115Z,15.00
2022-09-28T08:53:41.885Z,15.00
2022-09-28T08:56:29.131Z,15.10
2022-09-28T08:59:03.846Z,15.20
2022-09-28T09:01:40.172Z,15.50
2022-09-28T09:04:17.801Z,15.70
2022-09-28T09:07:17.845Z,15.90
2022-09-28T09:10:05.300Z,16.20
2022-09-28T09:12:43.933Z,16.30
2022-09-28T09:15:21.546Z,16.40
2022-09-28T09:18:03.470Z,16.70
2022-09-28T09:20:57.600Z,16.90
2022-09-28T09:23:47.521Z,17.20
2022-09-28T09:26:36.033Z,17.40
2022-09-28T09:29:14.814Z,17.70
2022-09-28T09:32:03.149Z,17.80
2022-09-28T09:34:47.874Z,17.70
2022-09-28T09:37:58.465Z,17.80
2022-09-28T09:41:01.947Z,18.00
2022-09-28T09:44:05.702Z,18.00
2022-09-28T09:47:08.892Z,18.20
2022-09-28T09:49:52.551Z,18.20
2022-09-28T09:52:27.909Z,18.40
2022-09-28T09:55:03.259Z,18.40
2022-09-28T09:57:50.991Z,18.60
2022-09-28T10:00:50.059Z,18.80
2022-09-28T10:03:34.187Z,18.70
2022-09-28T10:06:18.633Z,18.80
2022-09-28T10:08:59.559Z,18.90
2022-09-28T10:11:36.164Z,19.20
2022-09-28T10:14:13.723Z,19.50
2022-09-28T10:16:58.368Z,19.70
2022-09-28T10:19:50.023Z,19.80
2022-09-28T10:23:02.104Z,19.90
2022-09-28T10:25:38.594Z,20.10
2022-09-28T10:28:15.446Z,20.30
2022-09-28T10:30:48.809Z,20.30
2022-09-28T10:33:30.743Z,20.40
2022-09-28T10:36:08.213Z,20.40
2022-09-28T10:38:48.633Z,20.50
2022-09-28T10:41:32.873Z,20.60
2022-09-28T10:44:17.597Z,20.60
2022-09-28T10:47:14.643Z,20.70
2022-09-28T10:49:50.714Z,20.50
2022-09-28T10:52:34.593Z,20.40
2022-09-28T10:55:27.997Z,20.20
2022-09-28T10:58:01.334Z,19.90
2022-09-28T11:00:44.234Z,19.70
2022-09-28T11:03:26.020Z,19.80
2022-09-28T11:06:03.736Z,20.00
2022-09-28T11:08:38.524Z,20.20
2022-09-28T11:11:14.505Z,20.40
2022-09-28T11:13:49.329Z,20.60
2022-09-28T11:16:29.868Z,20.80
2022-09-28T11:19:05.821Z,20.90
2022-09-28T11:21:46.021Z,21.10
2022-09-28T11:24:21.660Z,21.10
2022-09-28T11:26:57.603Z,20.90
2022-09-28T11:29:37.390Z,20.90
2022-09-28T11:32:42.989Z,21.00
2022-09-28T11:35:45.592Z,21.20
2022-09-28T11:38:31.908Z,21.40
2022-09-28T11:41:23.355Z,21.50
2022-09-28T11:44:05.073Z,21.50
2022-09-28T11:46:42.452Z,21.70
2022-09-28T11:49:25.757Z,22.00
2022-09-28T11:52:02.324Z,22.10
2022-09-28T11:54:41.523Z,22.20
2022-09-28T11:57:17.011Z,22.20
2022-09-28T11:59:56.686Z,22.00
2022-09-28T12:02:33.241Z,21.90
2022-09-28T12:05:18.430Z,21.90
2022-09-28T12:07:56.548Z,22.00
2022-09-28T12:11:06.508Z,22.30
2022-09-28T12:13:59.462Z,22.50
2022-09-28T12:19:31.785Z,22.70
2022-09-28T12:22:10.273Z,22.80
2022-09-28T12:24:44.987Z,22.80
2022-09-28T12:27:23.315Z,22.80
2022-09-28T12:29:59.828Z,22.80
2022-09-28T12:32:37.444Z,22.80
2022-09-28T12:35:15.154Z,22.80
2022-09-28T12:37:58.691Z,22.80
2022-09-28T12:40:39.411Z,22.80
2022-09-28T12:43:29.033Z,22.80
2022-09-28T12:46:12.314Z,22.50
2022-09-28T12:52:10.097Z,22.30
2022-09-28T12:54:54.487Z,22.20
2022-09-28T12:57:45.578Z,22.20
2022-09-28T13:00:22.260Z,22.10
2022-09-28T13:03:07.886Z,21.90
2022-09-28T13:06:01.732Z,21.60
2022-09-28T13:08:37.863Z,21.60
2022-09-28T13:11:15.808Z,21.60
2022-09-28T13:13:54.345Z,21.50
2022-09-28T13:16:31.229Z,21.60
2022-09-28T13:19:13.151Z,21.60
2022-09-28T13:21:51.392Z,21.80
2022-09-28T13:24:32.811Z,21.70
2022-09-28T13:27:10.295Z,21.50
2022-09-28T13:29:44.437Z,21.40
2022-09-28T13:32:18.650Z,21.30
2022-09-28T13:34:54.809Z,21.20
2022-09-28T13:37:28.214Z,21.10
2022-09-28T13:40:06.167Z,20.90
2022-09-28T13:43:00.430Z,20.80
2022-09-28T13:45:50.272Z,20.60
2022-09-28T13:48:25.720Z,20.40
2022-09-28T13:51:09.185Z,20.20
2022-09-28T13:53:53.528Z,20.10
2022-09-28T13:56:31.186Z,20.10
2022-09-28T13:59:05.313Z,19.80
2022-09-28T14:01:40.487Z,19.70
2022-09-28T14:04:16.862Z,19.50
2022-09-28T14:06:57.534Z,19.30
2022-09-28T14:09:51.717Z,19.10
2022-09-28T14:12:39.759Z,18.90
2022-09-28T14:15:31.628Z,18.70
2022-09-28T14:18:08.441Z,18.50
2022-09-28T14:20:48.610Z,18.20
2022-09-28T14:23:38.772Z,18.10
2022-09-28T14:26:41.627Z,17.90
2022-09-28T14:29:22.097Z,17.70
2022-09-28T14:31:56.290Z,17.50
2022-09-28T14:34:34.353Z,17.40
2022-09-28T14:37:37.202Z,17.30
2022-09-28T14:40:35.059Z,17.00
2022-09-28T14:43:24.179Z,16.80
2022-09-28T14:46:17.087Z,16.60
2022-09-28T14:48:52.724Z,16.50
2022-09-28T14:51:45.176Z,16.40
2022-09-28T14:54:20.476Z,16.30
2022-09-28T14:56:59.832Z,16.20
2022-09-28T14:59:36.314Z,16.10
2022-09-28T15:02:15.040Z,16.00
2022-09-28T15:04:50.293Z,15.90
2022-09-28T15:07:24.855Z,15.80
2022-09-28T15:09:58.825Z,15.70
2022-09-28T15:12:36.886Z,15.60
2022-09-28T15:15:21.417Z,15.60
2022-09-28T15:17:57.347Z,15.50
2022-09-28T15:20:31.506Z,15.40
2022-09-28T15:23:04.967Z,15.40
2022-09-28T15:25:38.184Z,15.30
2022-09-28T15:28:19.185Z,15.20
2022-09-28T15:30:52.887Z,15.20
2022-09-28T15:33:44.265Z,15.20
2022-09-28T15:36:19.958Z,15.20
2022-09-28T15:38:55.985Z,15.10
2022-09-28T15:41:29.714Z,15.10
2022-09-28T15:44:09.396Z,15.10
2022-09-28T15:46:44.894Z,15.00
2022-09-28T15:49:24.195Z,14.90
2022-09-28T15:51:57.390Z,14.90
2022-09-28T15:54:34.953Z,14.90
2022-09-28T15:57:29.376Z,14.90
2022-09-28T16:00:06.021Z,14.80
2022-09-28T16:03:00.404Z,14.80
2022-09-28T16:05:36.832Z,14.70
2022-09-28T16:08:21.281Z,14.70
2022-09-28T16:11:01.212Z,14.70
2022-09-28T16:13:34.988Z,14.60
2022-09-28T16:16:15.246Z,14.60
2022-09-28T16:18:49.242Z,14.60
2022-09-28T16:21:36.257Z,14.50
2022-09-28T16:24:19.973Z,14.40
2022-09-28T16:26:57.404Z,14.40
2022-09-28T16:29:35.790Z,14.40
2022-09-28T16:32:27.808Z,14.40
2022-09-28T16:35:18.643Z,14.30
2022-09-28T16:37:57.802Z,14.30
2022-09-28T16:40:32.049Z,14.30
2022-09-28T16:43:06.765Z,14.30
2022-09-28T16:45:40.093Z,14.30
2022-09-28T16:48:15.866Z,14.30
2022-09-28T16:50:50.491Z,14.30
2022-09-28T16:53:41.096Z,14.20
2022-09-28T16:56:14.575Z,14.20
2022-09-28T16:58:49.508Z,14.20
2022-09-28T17:01:23.220Z,14.10
2022-09-28T17:03:56.606Z,14.10
2022-09-28T17:06:31.399Z,14.10
2022-09-28T17:09:07.002Z,14.00
2022-09-28T17:11:40.266Z,14.00
2022-09-28T17:14:14.087Z,14.00
2022-09-28T17:17:07.387Z,14.00
2022-09-28T17:19:43.508Z,14.00
2022-09-28T17:22:18.435Z,14.00
2022-09-28T17:24:51.653Z,14.00
2022-09-28T17:27:24.847Z,14.00
2022-09-28T17:29:58.029Z,13.90
2022-09-28T17:32:32.554Z,13.90
2022-09-28T17:35:23.544Z,13.90
2022-09-28T17:37:59.506Z,13.90
2022-09-28T17:40:32.814Z,13.80
2022-09-28T17:43:06.222Z,13.80
2022-09-28T17:45:41.067Z,13.70
2022-09-28T17:48:15.841Z,13.70
2022-09-28T17:50:49.120Z,13.70
2022-09-28T17:53:23.729Z,13.70
2022-09-28T17:55:57.491Z,13.60
2022-09-28T17:58:30.742Z,13.60
2022-09-28T18:01:04.101Z,13.60
2022-09-28T18:03:38.489Z,13.60
2022-09-28T18:06:14.619Z,13.60
2022-09-28T18:08:49.424Z,13.50
2022-09-28T18:11:22.822Z,13.50
2022-09-28T18:13:56.078Z,13.50
2022-09-28T18:16:29.360Z,13.40
2022-09-28T18:19:02.761Z,13.40
2022-09-28T18:21:36.056Z,13.40
2022-09-28T18:24:10.666Z,13.40
2022-09-28T18:26:43.921Z,13.40
2022-09-28T18:29:17.984Z,13.40
2022-09-28T18:31:51.208Z,13.40
2022-09-28T18:34:24.555Z,13.30
2022-09-28T18:36:57.840Z,13.30
2022-09-28T18:39:32.503Z,13.30
2022-09-28T18:42:06.081Z,13.30
2022-09-28T18:44:39.353Z,13.30
2022-09-28T18:47:14.504Z,13.30
2022-09-28T18:49:47.802Z,13.30
2022-09-28T18:52:21.047Z,13.30
2022-09-28T18:54:55.701Z,13.30
2022-09-28T18:57:28.939Z,13.30
2022-09-28T19:00:02.970Z,13.30
2022-09-28T19:02:36.532Z,13.30
2022-09-28T19:05:09.926Z,13.30
2022-09-28T19:07:43.579Z,13.30
2022-09-28T19:10:18.378Z,13.30
2022-09-28T19:12:52.416Z,13.30
2022-09-28T19:15:25.767Z,13.30
2022-09-28T19:17:59.006Z,13.30
2022-09-28T19:20:33.601Z,13.30
2022-09-28T19:23:06.858Z,13.30
2022-09-28T19:25:41.491Z,13.30
2022-09-28T19:28:15.711Z,13.30
2022-09-28T19:30:56.413Z,13.30
2022-09-28T19:33:32.823Z,13.30
2022-09-28T19:36:06.952Z,13.30
2022-09-28T19:38:40.771Z,13.30
2022-09-28T19:41:39.492Z,13.30
2022-09-28T19:44:21.277Z,13.30
2022-09-28T19:46:55.409Z,13.20
2022-09-28T19:49:33.061Z,13.20
2022-09-28T19:52:13.166Z,13.30
2022-09-28T19:54:56.813Z,13.30
2022-09-28T19:57:32.522Z,13.30
2022-09-28T20:00:06.396Z,13.20
2022-09-28T20:02:39.905Z,13.20
2022-09-28T20:05:13.135Z,13.20
2022-09-28T20:07:46.969Z,13.20
2022-09-28T20:10:20.219Z,13.20
2022-09-28T20:12:54.818Z,13.20
2022-09-28T20:15:28.230Z,13.20
2022-09-28T20:18:01.490Z,13.20
2022-09-28T20:20:34.716Z,13.20
2022-09-28T20:23:07.932Z,13.20
2022-09-28T20:25:41.155Z,13.20
2022-09-28T20:28:16.171Z,13.20
2022-09-28T20:30:49.363Z,13.20
2022-09-28T20:33:28.749Z,13.20
2022-09-28T20:36:05.428Z,13.20
2022-09-28T20:38:40.580Z,13.20
2022-09-28T20:41:14.983Z,13.20
2022-09-28T20:43:51.967Z,13.20
2022-09-28T20:46:25.605Z,13.20
2022-09-28T20:48:59.684Z,13.10
2022-09-28T20:51:33.078Z,13.10
2022-09-28T20:54:06.411Z,13.20
2022-09-28T20:56:39.658Z,13.20
2022-09-28T20:59:14.410Z,13.10
2022-09-28T21:01:47.695Z,13.20
2022-09-28T21:04:21.334Z,13.10
2022-09-28T21:06:54.627Z,13.10
2022-09-28T21:09:30.064Z,13.10
2022-09-28T21:12:03.322Z,13.10
2022-09-28T21:14:37.934Z,13.10
2022-09-28T21:17:11.538Z,13.10
2022-09-28T21:19:44.750Z,13.10
2022-09-28T21:22:17.922Z,13.10
2022-09-28T21:24:51.154Z,13.10
2022-09-28T21:27:24.413Z,13.10
2022-09-28T21:29:59.031Z,13.00
2022-09-28T21:32:34.277Z,13.00
2022-09-28T21:35:08.033Z,13.00
2022-09-28T21:37:41.254Z,13.00
2022-09-28T21:40:14.531Z,13.00
2022-09-28T21:42:47.724Z,13.00
2022-09-28T21:45:22.307Z,13.00
2022-09-28T21:47:55.519Z,13.00
2022-09-28T21:50:28.823Z,13.00
2022-09-28T21:53:03.290Z,13.00
2022-09-28T21:55:36.511Z,12.90
2022-09-28T21:58:09.676Z,12.90
2022-09-28T22:00:44.270Z,12.90
2022-09-28T22:03:18.013Z,12.90
2022-09-28T22:05:51.663Z,12.90
2022-09-28T22:08:24.887Z,12.90
2022-09-28T22:10:59.853Z,12.90
2022-09-28T22:13:34.487Z,12.90
2022-09-28T22:16:09.536Z,12.90
2022-09-28T22:18:42.853Z,13.00
2022-09-28T22:21:16.887Z,12.90
2022-09-28T22:23:50.461Z,12.90
2022-09-28T22:26:24.791Z,12.90
2022-09-28T22:28:59.323Z,12.90
2022-09-28T22:31:34.865Z,12.90
2022-09-28T22:34:08.810Z,13.00
2022-09-28T22:36:42.126Z,13.00
2022-09-28T22:39:15.831Z,12.90
2022-09-28T22:41:49.114Z,12.90
2022-09-28T22:44:22.491Z,12.90
2022-09-28T22:46:57.110Z,12.90
2022-09-28T22:49:49.391Z,12.90
2022-09-28T22:52:22.828Z,12.80
2022-09-28T22:54:56.172Z,12.80
2022-09-28T22:57:30.340Z,12.80
2022-09-28T23:00:03.676Z,12.80
2022-09-28T23:02:38.392Z,12.80
2022-09-28T23:05:11.976Z,12.80
2022-09-28T23:07:45.345Z,12.80
2022-09-28T23:10:18.538Z,12.80
2022-09-28T23:12:54.164Z,12.70
2022-09-28T23:15:28.514Z,12.70
2022-09-28T23:18:03.406Z,12.70
2022-09-28T23:20:37.270Z,12.70
2022-09-28T23:23:10.661Z,12.70
2022-09-28T23:25:43.876Z,12.70
2022-09-28T23:28:17.255Z,12.60
2022-09-28T23:30:50.686Z,12.60
2022-09-28T23:33:25.342Z,12.60
2022-09-28T23:36:01.861Z,12.60
2022-09-28T23:38:35.101Z,12.60
2022-09-28T23:41:08.745Z,12.60
2022-09-28T23:43:41.967Z,12.60
2022-09-28T23:46:20.285Z,12.60
2022-09-28T23:48:55.418Z,12.60
2022-09-28T23:51:29.658Z,12.50
2022-09-28T23:54:05.218Z,12.50
2022-09-28T23:56:38.674Z,12.50
2022-09-28T23:59:11.929Z,12.50
